createdAt,value
2022-10-23T00:01:29.823Z,1.10
2022-10-23T00:04:00.004Z,1.13
2022-10-23T00:06:29.167Z,1.20
2022-10-23T00:08:56.809Z,1.10
2022-10-23T00:11:28.320Z,1.00
2022-10-23T00:13:59.576Z,1.10
2022-10-23T00:16:27.986Z,1.10
2022-10-23T00:18:55.380Z,1.02
2022-10-23T00:21:23.228Z,1.15
2022-10-23T00:23:50.751Z,1.20
2022-10-23T00:26:18.307Z,1.30
2022-10-23T00:28:49.720Z,1.45
2022-10-23T00:31:17.738Z,1.00
2022-10-23T00:33:45.697Z,1.20
2022-10-23T00:36:15.228Z,1.08
2022-10-23T00:38:45.257Z,1.40
2022-10-23T00:41:22.900Z,1.40
2022-10-23T00:44:29.102Z,1.50
2022-10-23T00:46:58.096Z,1.63
2022-10-23T00:49:26.073Z,1.83
2022-10-23T00:51:59.008Z,1.70
2022-10-23T00:54:31.502Z,2.03
2022-10-23T00:57:01.837Z,1.90
2022-10-23T00:59:30.229Z,2.33
2022-10-23T01:01:58.674Z,1.67
2022-10-23T01:04:28.162Z,1.75
2022-10-23T01:07:05.550Z,2.08
2022-10-23T01:09:47.048Z,2.13
2022-10-23T01:12:43.386Z,1.67
2022-10-23T01:15:22.056Z,2.10
2022-10-23T01:17:56.958Z,2.25
2022-10-23T01:20:40.662Z,1.98
2022-10-23T01:23:38.067Z,1.83
2022-10-23T01:26:26.025Z,2.13
2022-10-23T01:29:37.986Z,2.67
2022-10-23T01:32:15.436Z,1.83
2022-10-23T01:34:51.976Z,1.40
2022-10-23T01:37:27.195Z,1.70
2022-10-23T01:40:03.606Z,2.05
2022-10-23T01:42:40.383Z,2.00
2022-10-23T01:45:19.268Z,1.42
2022-10-23T01:47:49.569Z,2.25
2022-10-23T01:50:19.696Z,2.28
2022-10-23T01:52:49.203Z,1.75
2022-10-23T01:55:17.989Z,2.33
2022-10-23T01:57:47.359Z,1.60
2022-10-23T02:00:18.085Z,2.63
2022-10-23T02:02:56.129Z,1.77
2022-10-23T02:05:31.683Z,1.80
2022-10-23T02:08:01.397Z,1.63
2022-10-23T02:10:40.876Z,1.60
2022-10-23T02:13:19.081Z,2.42
2022-10-23T02:15:57.536Z,1.80
2022-10-23T02:18:40.479Z,1.55
2022-10-23T02:21:16.479Z,1.95
2022-10-23T02:24:05.356Z,1.92
2022-10-23T02:27:10.233Z,2.28
2022-10-23T02:29:56.972Z,1.95
2022-10-23T02:32:27.188Z,2.28
2022-10-23T02:34:55.112Z,2.17
2022-10-23T02:37:25.509Z,2.03
2022-10-23T02:39:54.224Z,2.05
2022-10-23T02:42:22.307Z,1.75
2022-10-23T02:45:02.769Z,2.05
2022-10-23T02:47:36.688Z,2.50
2022-10-23T02:50:40.663Z,2.50
2022-10-23T02:53:35.375Z,2.85
2022-10-23T02:56:38.509Z,2.45
2022-10-23T02:59:17.447Z,2.55
2022-10-23T03:01:52.562Z,2.17
2022-10-23T03:04:24.878Z,2.72
2022-10-23T03:06:52.761Z,2.35
2022-10-23T03:09:20.265Z,2.25
2022-10-23T03:11:47.554Z,2.65
2022-10-23T03:14:14.912Z,2.50
2022-10-23T03:16:42.243Z,2.55
2022-10-23T03:21:44.202Z,2.42
2022-10-23T03:24:11.502Z,2.45
2022-10-23T03:26:42.782Z,2.80
2022-10-23T03:29:10.723Z,2.67
2022-10-23T03:31:43.772Z,2.53
2022-10-23T03:34:11.657Z,2.50
2022-10-23T03:36:41.295Z,2.30
2022-10-23T03:39:10.123Z,2.60
2022-10-23T03:41:37.486Z,2.67
2022-10-23T03:46:37.375Z,2.20
2022-10-23T03:49:05.727Z,2.47
2022-10-23T03:51:33.193Z,2.10
2022-10-23T03:54:00.599Z,3.17
2022-10-23T03:56:27.997Z,2.40
2022-10-23T03:58:55.348Z,1.98
2022-10-23T04:01:25.621Z,2.28
2022-10-23T04:03:53.010Z,2.35
2022-10-23T04:06:20.431Z,2.63
2022-10-23T04:08:47.941Z,2.40
2022-10-23T04:11:17.761Z,1.92
2022-10-23T04:13:46.634Z,2.35
2022-10-23T04:16:14.022Z,2.30
2022-10-23T04:18:41.911Z,2.50
2022-10-23T04:21:11.668Z,2.65
2022-10-23T04:23:39.544Z,2.08
2022-10-23T04:26:13.119Z,1.83
2022-10-23T04:28:40.666Z,2.05
2022-10-23T04:31:08.107Z,2.30
2022-10-23T04:33:35.457Z,2.28
2022-10-23T04:36:02.836Z,2.28
2022-10-23T04:38:30.235Z,2.17
2022-10-23T04:40:57.572Z,2.05
2022-10-23T04:43:24.989Z,2.65
2022-10-23T04:45:52.385Z,2.47
2022-10-23T04:48:23.377Z,2.67
2022-10-23T04:51:19.191Z,1.90
2022-10-23T04:54:01.496Z,2.28
2022-10-23T04:56:45.462Z,2.58
2022-10-23T04:59:16.855Z,2.10
2022-10-23T05:01:44.434Z,2.50
2022-10-23T05:04:11.939Z,1.77
2022-10-23T05:06:59.164Z,2.50
2022-10-23T05:09:42.992Z,2.15
2022-10-23T05:12:29.802Z,2.05
2022-10-23T05:14:57.696Z,2.72
2022-10-23T05:17:37.558Z,2.35
2022-10-23T05:20:12.685Z,2.10
2022-10-23T05:22:42.744Z,2.10
2022-10-23T05:25:13.537Z,2.40
2022-10-23T05:27:45.983Z,2.58
2022-10-23T05:30:15.250Z,2.33
2022-10-23T05:32:43.000Z,2.22
2022-10-23T05:35:15.806Z,2.65
2022-10-23T05:37:48.158Z,2.47
2022-10-23T05:40:20.901Z,2.45
2022-10-23T05:42:50.251Z,2.15
2022-10-23T05:45:22.100Z,2.38
2022-10-23T05:48:16.851Z,2.10
2022-10-23T05:51:11.702Z,2.30
2022-10-23T05:53:47.728Z,1.85
2022-10-23T05:56:19.821Z,1.67
2022-10-23T05:58:55.585Z,2.95
2022-10-23T06:01:31.780Z,3.08
2022-10-23T06:04:04.854Z,2.30
2022-10-23T06:06:56.179Z,2.92
2022-10-23T06:09:23.736Z,2.00
2022-10-23T06:11:56.271Z,1.92
2022-10-23T06:14:23.949Z,2.05
2022-10-23T06:16:52.622Z,2.10
2022-10-23T06:19:20.721Z,2.28
2022-10-23T06:21:52.077Z,2.22
2022-10-23T06:24:19.541Z,2.47
2022-10-23T06:26:54.793Z,2.15
2022-10-23T06:29:32.495Z,2.15
2022-10-23T06:32:01.119Z,2.15
2022-10-23T06:34:28.442Z,1.90
2022-10-23T06:36:55.993Z,2.20
2022-10-23T06:39:44.596Z,1.65
2022-10-23T06:42:35.251Z,2.50
2022-10-23T06:45:25.252Z,2.65
2022-10-23T06:48:12.777Z,2.28
2022-10-23T06:50:48.908Z,2.42
2022-10-23T06:53:20.799Z,6.13
2022-10-23T06:55:58.449Z,3.00
2022-10-23T06:58:25.953Z,2.30
2022-10-23T07:01:02.060Z,2.53
2022-10-23T07:03:29.993Z,2.45
2022-10-23T07:06:03.162Z,2.58
2022-10-23T07:08:30.935Z,2.58
2022-10-23T07:11:02.473Z,2.35
2022-10-23T07:13:29.844Z,2.60
2022-10-23T07:16:12.459Z,2.40
2022-10-23T07:18:40.771Z,2.47
2022-10-23T07:21:31.201Z,2.80
2022-10-23T07:24:17.901Z,2.40
2022-10-23T07:26:45.792Z,3.00
2022-10-23T07:29:14.259Z,5.88
2022-10-23T07:31:42.717Z,2.55
2022-10-23T07:34:28.847Z,2.42
2022-10-23T07:37:30.398Z,3.10
2022-10-23T07:40:00.020Z,2.63
2022-10-23T07:42:27.642Z,2.65
2022-10-23T07:44:54.922Z,2.65
2022-10-23T07:47:22.844Z,3.35
2022-10-23T07:49:51.964Z,2.80
2022-10-23T07:52:20.801Z,3.13
2022-10-23T07:55:10.921Z,3.40
2022-10-23T07:57:43.956Z,2.90
2022-10-23T08:00:29.560Z,3.10
2022-10-23T08:03:08.109Z,2.63
2022-10-23T08:05:35.464Z,2.92
2022-10-23T08:08:04.479Z,2.92
2022-10-23T08:10:32.374Z,2.97
2022-10-23T08:13:00.556Z,3.95
2022-10-23T08:15:49.320Z,2.92
2022-10-23T08:18:36.632Z,3.15
2022-10-23T08:21:04.497Z,3.05
2022-10-23T08:23:32.828Z,2.22
2022-10-23T08:26:02.138Z,2.90
2022-10-23T08:28:32.419Z,2.42
2022-10-23T08:31:11.019Z,2.50
2022-10-23T08:33:40.086Z,3.25
2022-10-23T08:36:26.691Z,2.67
2022-10-23T08:38:56.616Z,2.97
2022-10-23T08:41:29.940Z,2.05
2022-10-23T08:44:28.052Z,2.90
2022-10-23T08:47:19.635Z,2.42
2022-10-23T08:50:32.186Z,2.33
2022-10-23T08:53:21.145Z,2.28
2022-10-23T08:56:03.476Z,2.42
2022-10-23T08:58:42.620Z,3.13
2022-10-23T09:01:25.584Z,1.80
2022-10-23T09:03:53.066Z,2.92
2022-10-23T09:06:40.905Z,2.72
2022-10-23T09:09:32.374Z,2.53
2022-10-23T09:12:02.866Z,2.60
2022-10-23T09:15:06.895Z,2.25
2022-10-23T09:20:31.554Z,2.22
2022-10-23T09:23:22.503Z,2.55
2022-10-23T09:25:55.533Z,2.75
2022-10-23T09:28:32.586Z,2.05
2022-10-23T09:31:08.878Z,2.05
2022-10-23T09:33:37.293Z,2.30
2022-10-23T09:36:25.941Z,2.85
2022-10-23T09:38:55.841Z,2.20
2022-10-23T09:41:38.960Z,2.30
2022-10-23T09:44:14.910Z,2.40
2022-10-23T09:46:45.403Z,2.22
2022-10-23T09:49:25.049Z,2.42
2022-10-23T09:52:06.313Z,2.38
2022-10-23T09:54:48.587Z,2.00
2022-10-23T09:57:28.877Z,1.70
2022-10-23T10:00:01.253Z,1.55
2022-10-23T10:02:33.906Z,2.00
2022-10-23T10:05:26.804Z,1.98
2022-10-23T10:08:17.749Z,1.98
2022-10-23T10:10:52.511Z,1.73
2022-10-23T10:13:31.808Z,1.92
2022-10-23T10:16:06.643Z,1.98
2022-10-23T10:18:56.259Z,2.25
2022-10-23T10:21:47.858Z,1.80
2022-10-23T10:24:23.254Z,1.80
2022-10-23T10:27:08.976Z,1.50
2022-10-23T10:29:57.932Z,2.00
2022-10-23T10:32:35.836Z,1.75
2022-10-23T10:35:39.172Z,1.55
2022-10-23T10:38:21.548Z,2.00
2022-10-23T10:41:06.892Z,1.95
2022-10-23T10:43:40.138Z,1.70
2022-10-23T10:46:20.602Z,1.80
2022-10-23T10:49:03.992Z,1.70
2022-10-23T10:52:03.398Z,1.80
2022-10-23T10:57:00.151Z,1.90
2022-10-23T10:59:38.884Z,2.08
2022-10-23T11:02:19.254Z,1.95
2022-10-23T11:04:57.295Z,1.92
2022-10-23T11:07:33.408Z,2.08
2022-10-23T11:10:05.354Z,2.60
2022-10-23T11:12:32.867Z,1.83
2022-10-23T11:15:00.282Z,2.03
2022-10-23T11:17:38.169Z,1.92
2022-10-23T11:20:33.018Z,1.90
2022-10-23T11:23:29.303Z,2.53
2022-10-23T11:26:18.842Z,1.92
2022-10-23T11:29:24.595Z,2.00
2022-10-23T11:32:24.164Z,1.83
2022-10-23T11:34:54.246Z,2.17
2022-10-23T11:37:22.812Z,2.60
2022-10-23T11:40:08.303Z,1.95
2022-10-23T11:42:41.695Z,1.88
2022-10-23T11:45:45.712Z,2.17
2022-10-23T11:50:55.517Z,1.60
2022-10-23T11:53:32.176Z,1.90
2022-10-23T11:56:11.919Z,2.13
2022-10-23T11:58:51.637Z,1.60
2022-10-23T12:01:28.135Z,1.77
2022-10-23T12:04:13.854Z,2.35
2022-10-23T12:06:46.785Z,1.80
2022-10-23T12:12:09.404Z,2.33
2022-10-23T12:14:41.497Z,1.75
2022-10-23T12:17:24.732Z,2.17
2022-10-23T12:20:14.853Z,2.17
2022-10-23T12:22:58.072Z,1.95
2022-10-23T12:28:16.507Z,1.80
2022-10-23T12:31:25.538Z,2.72
2022-10-23T12:34:13.943Z,2.10
2022-10-23T12:37:03.078Z,2.33
2022-10-23T12:39:32.497Z,2.60
2022-10-23T12:42:00.775Z,2.78
2022-10-23T12:44:29.084Z,1.95
2022-10-23T12:47:02.091Z,2.38
2022-10-23T12:49:33.551Z,2.20
2022-10-23T12:52:03.976Z,1.90
2022-10-23T12:54:33.442Z,2.15
2022-10-23T12:57:00.731Z,2.35
2022-10-23T12:59:37.924Z,2.00
2022-10-23T13:02:20.488Z,2.28
2022-10-23T13:04:49.898Z,2.78
2022-10-23T13:07:20.724Z,2.30
2022-10-23T13:09:48.764Z,2.50
2022-10-23T13:12:27.643Z,2.23
2022-10-23T13:15:08.744Z,2.40
2022-10-23T13:17:45.316Z,2.50
2022-10-23T13:20:18.763Z,2.40
2022-10-23T13:25:41.148Z,2.65
2022-10-23T13:28:08.410Z,2.47
2022-10-23T13:30:38.821Z,2.50
2022-10-23T13:33:21.131Z,2.75
2022-10-23T13:35:59.532Z,2.63
2022-10-23T13:38:31.738Z,2.90
2022-10-23T13:41:00.982Z,3.65
2022-10-23T13:43:30.677Z,2.38
2022-10-23T13:46:02.037Z,3.53
2022-10-23T13:48:29.864Z,2.78
2022-10-23T13:51:09.734Z,2.10
2022-10-23T13:53:37.022Z,3.25
2022-10-23T13:56:04.471Z,3.28
2022-10-23T13:58:31.903Z,2.38
2022-10-23T14:00:59.623Z,3.08
2022-10-23T14:03:27.087Z,2.92
2022-10-23T14:05:54.517Z,3.10
2022-10-23T14:08:22.269Z,2.60
2022-10-23T14:10:49.667Z,3.03
2022-10-23T14:13:17.084Z,2.90
2022-10-23T14:15:44.332Z,3.13
2022-10-23T14:18:11.635Z,2.15
2022-10-23T14:20:39.420Z,3.10
2022-10-23T14:23:06.760Z,2.53
2022-10-23T14:25:34.068Z,3.60
2022-10-23T14:28:01.337Z,2.70
2022-10-23T14:30:28.860Z,2.63
2022-10-23T14:32:56.177Z,2.67
2022-10-23T14:35:25.472Z,3.03
2022-10-23T14:37:52.890Z,2.70
2022-10-23T14:40:20.171Z,3.30
2022-10-23T14:42:47.880Z,2.92
2022-10-23T14:45:15.500Z,2.85
2022-10-23T14:47:43.152Z,2.92
2022-10-23T14:50:12.068Z,3.10
2022-10-23T14:52:39.366Z,3.00
2022-10-23T14:55:06.959Z,3.03
2022-10-23T14:57:34.456Z,2.90
2022-10-23T15:00:01.822Z,2.53
2022-10-23T15:02:29.191Z,2.55
2022-10-23T15:04:56.612Z,2.88
2022-10-23T15:07:23.992Z,2.90
2022-10-23T15:09:51.942Z,2.80
2022-10-23T15:12:19.354Z,2.95
2022-10-23T15:14:46.644Z,2.58
2022-10-23T15:17:15.764Z,2.55
2022-10-23T15:19:43.285Z,2.97
2022-10-23T15:22:10.593Z,3.13
2022-10-23T15:24:37.920Z,4.15
2022-10-23T15:27:05.313Z,3.17
2022-10-23T15:29:32.677Z,3.05
2022-10-23T15:32:01.475Z,3.20
2022-10-23T15:34:30.161Z,2.65
2022-10-23T15:36:58.280Z,3.05
2022-10-23T15:39:28.710Z,2.67
2022-10-23T15:41:56.916Z,2.70
2022-10-23T15:44:26.403Z,3.20
2022-10-23T15:46:54.212Z,2.78
2022-10-23T15:49:21.603Z,4.00
2022-10-23T15:51:48.877Z,2.72
2022-10-23T15:54:19.173Z,2.70
2022-10-23T15:56:48.838Z,2.95
2022-10-23T15:59:17.733Z,2.80
2022-10-23T16:01:45.404Z,3.13
2022-10-23T16:04:13.335Z,2.63
2022-10-23T16:06:40.962Z,2.85
2022-10-23T16:09:08.419Z,2.88
2022-10-23T16:11:38.410Z,3.33
2022-10-23T16:14:06.041Z,3.38
2022-10-23T16:16:34.957Z,2.92
2022-10-23T16:19:04.577Z,3.10
2022-10-23T16:21:34.880Z,3.63
2022-10-23T16:24:05.081Z,3.85
2022-10-23T16:26:32.599Z,3.15
2022-10-23T16:29:02.626Z,2.85
2022-10-23T16:31:29.945Z,3.40
2022-10-23T16:33:59.135Z,3.45
2022-10-23T16:36:27.005Z,3.35
2022-10-23T16:39:14.805Z,3.25
2022-10-23T16:42:00.454Z,3.22
2022-10-23T16:44:38.196Z,3.15
2022-10-23T16:47:06.925Z,3.15
2022-10-23T16:49:34.640Z,3.63
2022-10-23T16:52:01.981Z,4.70
2022-10-23T16:54:29.258Z,3.30
2022-10-23T16:56:56.550Z,3.25
2022-10-23T16:59:24.171Z,3.92
2022-10-23T17:01:51.937Z,3.53
2022-10-23T17:04:19.507Z,4.78
2022-10-23T17:06:46.914Z,3.75
2022-10-23T17:09:14.672Z,3.80
2022-10-23T17:11:44.532Z,4.07
2022-10-23T17:14:18.306Z,3.70
2022-10-23T17:16:51.276Z,4.07
2022-10-23T17:19:40.107Z,4.25
2022-10-23T17:22:10.775Z,4.45
2022-10-23T17:24:40.332Z,4.38
2022-10-23T17:27:07.900Z,4.22
2022-10-23T17:29:35.246Z,3.70
2022-10-23T17:32:02.807Z,3.65
2022-10-23T17:34:30.163Z,3.88
2022-10-23T17:36:57.786Z,3.92
2022-10-23T17:39:27.882Z,3.88
2022-10-23T17:41:56.080Z,3.65
2022-10-23T17:44:23.929Z,3.90
2022-10-23T17:46:53.545Z,3.78
2022-10-23T17:49:22.165Z,3.63
2022-10-23T17:51:55.087Z,5.50
2022-10-23T17:54:23.477Z,4.65
2022-10-23T17:56:51.085Z,4.55
2022-10-23T17:59:19.792Z,4.53
2022-10-23T18:01:48.681Z,4.57
2022-10-23T18:04:18.487Z,3.85
2022-10-23T18:06:49.035Z,4.72
2022-10-23T18:09:16.520Z,5.55
2022-10-23T18:11:48.105Z,4.60
2022-10-23T18:14:18.546Z,5.05
2022-10-23T18:16:46.417Z,5.55
2022-10-23T18:19:15.711Z,4.68
2022-10-23T18:21:43.079Z,4.43
2022-10-23T18:24:11.133Z,4.38
2022-10-23T18:26:40.007Z,4.85
2022-10-23T18:29:08.639Z,4.65
2022-10-23T18:31:37.486Z,5.20
2022-10-23T18:34:08.096Z,4.57
2022-10-23T18:36:40.815Z,4.32
2022-10-23T18:39:11.847Z,4.32
2022-10-23T18:41:41.391Z,4.70
2022-10-23T18:44:10.089Z,4.32
2022-10-23T18:46:37.513Z,4.50
2022-10-23T18:49:05.261Z,4.50
2022-10-23T18:51:35.243Z,5.40
2022-10-23T18:54:06.951Z,4.65
2022-10-23T18:56:35.993Z,4.85
2022-10-23T18:59:05.516Z,6.32
2022-10-23T19:01:34.447Z,6.22
2022-10-23T19:04:03.105Z,5.57
2022-10-23T19:06:31.536Z,6.72
2022-10-23T19:08:59.483Z,5.13
2022-10-23T19:11:28.806Z,6.00
2022-10-23T19:13:56.267Z,5.97
2022-10-23T19:16:28.153Z,5.22
2022-10-23T19:19:05.229Z,5.20
2022-10-23T19:21:36.732Z,5.93
2022-10-23T19:24:09.371Z,4.95
2022-10-23T19:26:39.931Z,5.30
2022-10-23T19:29:10.412Z,6.18
2022-10-23T19:31:38.315Z,5.50
2022-10-23T19:34:06.168Z,6.72
2022-10-23T19:36:33.907Z,5.93
2022-10-23T19:39:01.659Z,5.10
2022-10-23T19:41:31.375Z,5.63
2022-10-23T19:43:59.298Z,6.28
2022-10-23T19:46:27.688Z,5.18
2022-10-23T19:48:55.637Z,5.53
2022-10-23T19:51:23.541Z,5.15
2022-10-23T19:56:20.236Z,6.15
2022-10-23T19:58:48.352Z,5.63
2022-10-23T20:01:22.085Z,4.85
2022-10-23T20:03:50.635Z,5.57
2022-10-23T20:06:21.867Z,6.05
2022-10-23T20:08:49.914Z,5.78
2022-10-23T20:11:24.129Z,5.78
2022-10-23T20:13:52.566Z,4.97
2022-10-23T20:16:22.137Z,5.30
2022-10-23T20:18:50.235Z,5.22
2022-10-23T20:21:18.131Z,5.57
2022-10-23T20:23:46.213Z,5.78
2022-10-23T20:26:17.043Z,6.07
2022-10-23T20:28:51.312Z,5.28
2022-10-23T20:31:20.461Z,5.28
2022-10-23T20:33:48.113Z,5.35
2022-10-23T20:36:33.809Z,6.10
2022-10-23T20:39:07.050Z,5.75
2022-10-23T20:44:10.823Z,5.70
2022-10-23T20:46:38.612Z,5.90
2022-10-23T20:49:06.040Z,6.18
2022-10-23T20:51:33.520Z,6.32
2022-10-23T20:54:00.851Z,4.93
2022-10-23T20:56:32.299Z,5.95
2022-10-23T20:59:27.019Z,5.72
2022-10-23T21:01:56.290Z,5.45
2022-10-23T21:04:27.463Z,5.60
2022-10-23T21:07:09.480Z,5.13
2022-10-23T21:09:38.294Z,6.80
2022-10-23T21:12:06.688Z,5.63
2022-10-23T21:14:34.725Z,5.88
2022-10-23T21:17:02.171Z,6.60
2022-10-23T21:19:29.598Z,5.50
2022-10-23T21:21:57.108Z,5.68
2022-10-23T21:24:24.647Z,5.43
2022-10-23T21:26:52.047Z,5.47
2022-10-23T21:29:20.372Z,5.18
2022-10-23T21:32:03.905Z,5.35
2022-10-23T21:34:31.291Z,5.78
2022-10-23T21:37:14.831Z,5.82
2022-10-23T21:39:44.083Z,4.70
2022-10-23T21:42:12.957Z,5.63
2022-10-23T21:44:40.525Z,6.35
2022-10-23T21:47:07.857Z,5.82
2022-10-23T21:49:35.263Z,5.93
2022-10-23T21:52:03.391Z,5.00
2022-10-23T21:54:30.728Z,6.18
2022-10-23T21:56:58.024Z,5.60
2022-10-23T21:59:29.069Z,5.32
2022-10-23T22:01:59.158Z,6.68
2022-10-23T22:04:26.817Z,5.68
2022-10-23T22:06:54.164Z,5.18
2022-10-23T22:09:22.228Z,5.35
2022-10-23T22:11:50.956Z,5.32
2022-10-23T22:14:18.885Z,4.32
2022-10-23T22:16:46.911Z,5.18
2022-10-23T22:19:16.885Z,5.82
2022-10-23T22:21:44.773Z,5.82
2022-10-23T22:24:12.779Z,5.63
2022-10-23T22:26:46.199Z,5.28
2022-10-23T22:29:17.701Z,5.70
2022-10-23T22:31:48.866Z,6.35
2022-10-23T22:37:16.482Z,5.55
2022-10-23T22:39:43.884Z,5.40
2022-10-23T22:42:11.223Z,4.75
2022-10-23T22:44:38.613Z,4.72
2022-10-23T22:47:06.389Z,5.13
2022-10-23T22:49:33.655Z,6.63
2022-10-23T22:52:01.002Z,5.57
2022-10-23T22:54:30.465Z,5.75
2022-10-23T22:56:57.907Z,5.00
2022-10-23T22:59:25.234Z,5.13
2022-10-23T23:01:52.475Z,6.40
2022-10-23T23:07:09.491Z,4.88
2022-10-23T23:09:41.359Z,5.20
2022-10-23T23:12:10.716Z,6.07
2022-10-23T23:14:38.563Z,6.68
2022-10-23T23:17:07.406Z,4.55
2022-10-23T23:19:35.200Z,4.85
2022-10-23T23:22:02.800Z,5.13
2022-10-23T23:24:30.340Z,5.60
2022-10-23T23:26:57.682Z,5.63
2022-10-23T23:29:25.106Z,5.13
2022-10-23T23:31:52.570Z,5.13
2022-10-23T23:34:19.921Z,5.30
2022-10-23T23:36:47.315Z,5.13
2022-10-23T23:39:14.603Z,4.85
2022-10-23T23:41:42.201Z,5.30
2022-10-23T23:44:09.622Z,4.85
2022-10-23T23:46:36.964Z,6.15
2022-10-23T23:49:04.325Z,5.47
2022-10-23T23:51:31.840Z,4.75
2022-10-23T23:53:59.350Z,5.68
2022-10-23T23:56:28.100Z,4.90
2022-10-23T23:58:55.444Z,5.50
